sensor_id;sensor_type;location;lat;lon;timestamp;temperature;humidity
22779;DHT22;11556;51.194;3.800;2023-03-14T00:01:07;11.40;99.90
22779;DHT22;11556;51.194;3.800;2023-03-14T00:03:33;11.40;99.90
22779;DHT22;11556;51.194;3.800;2023-03-14T00:06:02;11.40;99.90
22779;DHT22;11556;51.194;3.800;2023-03-14T00:08:28;11.30;99.90
22779;DHT22;11556;51.194;3.800;2023-03-14T00:10:53;11.40;99.90
22779;DHT22;11556;51.194;3.800;2023-03-14T00:13:19;11.40;99.90
22779;DHT22;11556;51.194;3.800;2023-03-14T00:15:44;11.30;99.90
22779;DHT22;11556;51.194;3.800;2023-03-14T00:18:10;11.30;99.90
22779;DHT22;11556;51.194;3.800;2023-03-14T00:20:36;11.30;99.90
22779;DHT22;11556;51.194;3.800;2023-03-14T00:23:01;11.30;99.90
22779;DHT22;11556;51.194;3.800;2023-03-14T00:25:27;11.30;99.90
22779;DHT22;11556;51.194;3.800;2023-03-14T00:27:53;11.30;99.90
22779;DHT22;11556;51.194;3.800;2023-03-14T00:30:19;11.30;99.90
22779;DHT22;11556;51.194;3.800;2023-03-14T00:32:44;11.30;99.90
22779;DHT22;11556;51.194;3.800;2023-03-14T00:35:10;11.30;99.90
22779;DHT22;11556;51.194;3.800;2023-03-14T00:37:36;11.30;99.90
22779;DHT22;11556;51.194;3.800;2023-03-14T00:40:01;11.30;99.90
22779;DHT22;11556;51.194;3.800;2023-03-14T00:42:28;11.30;99.90
22779;DHT22;11556;51.194;3.800;2023-03-14T00:44:53;11.30;99.90
22779;DHT22;11556;51.194;3.800;2023-03-14T00:47:19;11.40;99.90
22779;DHT22;11556;51.194;3.800;2023-03-14T00:49:45;11.30;99.90
22779;DHT22;11556;51.194;3.800;2023-03-14T00:52:11;11.30;99.90
22779;DHT22;11556;51.194;3.800;2023-03-14T00:54:37;11.30;99.90
22779;DHT22;11556;51.194;3.800;2023-03-14T00:57:03;11.40;99.90
22779;DHT22;11556;51.194;3.800;2023-03-14T00:59:28;11.30;99.90
22779;DHT22;11556;51.194;3.800;2023-03-14T01:01:54;11.30;99.90
22779;DHT22;11556;51.194;3.800;2023-03-14T01:04:20;11.30;99.90
22779;DHT22;11556;51.194;3.800;2023-03-14T01:06:45;11.40;99.90
22779;DHT22;11556;51.194;3.800;2023-03-14T01:09:11;11.40;99.90
22779;DHT22;11556;51.194;3.800;2023-03-14T01:11:37;11.40;99.90
22779;DHT22;11556;51.194;3.800;2023-03-14T01:14:03;11.40;99.90
22779;DHT22;11556;51.194;3.800;2023-03-14T01:16:31;11.40;99.90
22779;DHT22;11556;51.194;3.800;2023-03-14T01:18:57;11.30;99.90
22779;DHT22;11556;51.194;3.800;2023-03-14T01:21:26;11.40;99.90
22779;DHT22;11556;51.194;3.800;2023-03-14T01:23:53;11.50;99.90
22779;DHT22;11556;51.194;3.800;2023-03-14T01:26:21;11.60;99.90
22779;DHT22;11556;51.194;3.800;2023-03-14T01:28:48;11.60;99.90
22779;DHT22;11556;51.194;3.800;2023-03-14T01:31:14;11.50;99.90
22779;DHT22;11556;51.194;3.800;2023-03-14T01:33:40;11.50;99.90
22779;DHT22;11556;51.194;3.800;2023-03-14T01:36:07;11.40;99.90
22779;DHT22;11556;51.194;3.800;2023-03-14T01:38:35;11.30;99.90
22779;DHT22;11556;51.194;3.800;2023-03-14T01:41:02;11.40;99.90
22779;DHT22;11556;51.194;3.800;2023-03-14T01:43:28;11.50;99.90
22779;DHT22;11556;51.194;3.800;2023-03-14T01:48:38;11.50;99.90
22779;DHT22;11556;51.194;3.800;2023-03-14T01:51:09;11.40;99.90
22779;DHT22;11556;51.194;3.800;2023-03-14T01:53:36;11.50;99.90
22779;DHT22;11556;51.194;3.800;2023-03-14T01:56:02;11.60;99.90
22779;DHT22;11556;51.194;3.800;2023-03-14T01:58:30;11.60;99.90
22779;DHT22;11556;51.194;3.800;2023-03-14T02:00:58;11.50;99.90
22779;DHT22;11556;51.194;3.800;2023-03-14T02:03:25;11.50;99.90
22779;DHT22;11556;51.194;3.800;2023-03-14T02:05:53;11.50;99.90
22779;DHT22;11556;51.194;3.800;2023-03-14T02:08:22;11.50;99.90
22779;DHT22;11556;51.194;3.800;2023-03-14T02:10:48;11.60;99.90
22779;DHT22;11556;51.194;3.800;2023-03-14T02:13:17;11.60;99.90
22779;DHT22;11556;51.194;3.800;2023-03-14T02:15:44;11.70;99.90
22779;DHT22;11556;51.194;3.800;2023-03-14T02:18:10;11.70;99.90
22779;DHT22;11556;51.194;3.800;2023-03-14T02:20:59;11.60;99.90
22779;DHT22;11556;51.194;3.800;2023-03-14T02:29:26;11.50;99.90
22779;DHT22;11556;51.194;3.800;2023-03-14T02:31:52;11.50;99.90
22779;DHT22;11556;51.194;3.800;2023-03-14T02:34:18;11.50;99.90
22779;DHT22;11556;51.194;3.800;2023-03-14T02:36:43;11.50;99.90
22779;DHT22;11556;51.194;3.800;2023-03-14T02:39:19;11.40;99.90
22779;DHT22;11556;51.194;3.800;2023-03-14T02:41:47;11.50;99.90
22779;DHT22;11556;51.194;3.800;2023-03-14T02:44:14;11.40;99.90
22779;DHT22;11556;51.194;3.800;2023-03-14T02:46:40;11.40;99.90
22779;DHT22;11556;51.194;3.800;2023-03-14T02:49:08;11.40;99.90
22779;DHT22;11556;51.194;3.800;2023-03-14T02:51:35;11.50;99.90
22779;DHT22;11556;51.194;3.800;2023-03-14T02:54:01;11.50;99.90
22779;DHT22;11556;51.194;3.800;2023-03-14T02:56:27;11.50;99.90
22779;DHT22;11556;51.194;3.800;2023-03-14T02:58:53;11.40;99.90
22779;DHT22;11556;51.194;3.800;2023-03-14T03:01:18;11.50;99.90
22779;DHT22;11556;51.194;3.800;2023-03-14T03:03:44;11.60;99.90
22779;DHT22;11556;51.194;3.800;2023-03-14T03:06:10;11.60;99.90
22779;DHT22;11556;51.194;3.800;2023-03-14T03:08:35;11.50;99.90
22779;DHT22;11556;51.194;3.800;2023-03-14T03:11:02;11.40;99.90
22779;DHT22;11556;51.194;3.800;2023-03-14T03:13:27;11.40;99.90
22779;DHT22;11556;51.194;3.800;2023-03-14T03:15:53;11.50;99.90
22779;DHT22;11556;51.194;3.800;2023-03-14T03:18:19;11.50;99.90
22779;DHT22;11556;51.194;3.800;2023-03-14T03:20:44;11.50;99.90
22779;DHT22;11556;51.194;3.800;2023-03-14T03:23:11;11.40;99.90
22779;DHT22;11556;51.194;3.800;2023-03-14T03:25:37;11.40;99.90
22779;DHT22;11556;51.194;3.800;2023-03-14T03:28:03;11.40;99.90
22779;DHT22;11556;51.194;3.800;2023-03-14T03:30:34;11.50;99.90
22779;DHT22;11556;51.194;3.800;2023-03-14T03:33:02;11.50;99.90
22779;DHT22;11556;51.194;3.800;2023-03-14T03:35:27;11.50;99.90
22779;DHT22;11556;51.194;3.800;2023-03-14T03:37:53;11.40;99.90
22779;DHT22;11556;51.194;3.800;2023-03-14T03:40:18;11.30;99.90
22779;DHT22;11556;51.194;3.800;2023-03-14T03:42:44;11.40;99.90
22779;DHT22;11556;51.194;3.800;2023-03-14T03:45:10;11.40;99.90
22779;DHT22;11556;51.194;3.800;2023-03-14T03:47:35;11.30;99.90
22779;DHT22;11556;51.194;3.800;2023-03-14T03:50:01;11.30;99.90
22779;DHT22;11556;51.194;3.800;2023-03-14T03:52:27;11.50;99.90
22779;DHT22;11556;51.194;3.800;2023-03-14T03:54:53;11.50;99.90
22779;DHT22;11556;51.194;3.800;2023-03-14T03:57:19;11.50;99.90
22779;DHT22;11556;51.194;3.800;2023-03-14T03:59:45;11.40;99.90
22779;DHT22;11556;51.194;3.800;2023-03-14T04:02:10;11.30;99.90
22779;DHT22;11556;51.194;3.800;2023-03-14T04:04:36;11.30;99.90
22779;DHT22;11556;51.194;3.800;2023-03-14T04:07:03;11.40;99.90
22779;DHT22;11556;51.194;3.800;2023-03-14T04:09:29;11.40;99.90
22779;DHT22;11556;51.194;3.800;2023-03-14T04:11:54;11.40;99.90
22779;DHT22;11556;51.194;3.800;2023-03-14T04:14:20;11.40;99.90
22779;DHT22;11556;51.194;3.800;2023-03-14T04:16:46;11.40;99.90
22779;DHT22;11556;51.194;3.800;2023-03-14T04:19:11;11.40;99.90
22779;DHT22;11556;51.194;3.800;2023-03-14T04:21:37;11.50;99.90
22779;DHT22;11556;51.194;3.800;2023-03-14T04:24:06;11.40;99.90
22779;DHT22;11556;51.194;3.800;2023-03-14T04:26:31;11.40;99.90
22779;DHT22;11556;51.194;3.800;2023-03-14T04:28:57;11.40;99.90
22779;DHT22;11556;51.194;3.800;2023-03-14T04:31:23;11.40;99.90
22779;DHT22;11556;51.194;3.800;2023-03-14T04:33:48;11.40;99.90
22779;DHT22;11556;51.194;3.800;2023-03-14T04:36:14;11.40;99.90
22779;DHT22;11556;51.194;3.800;2023-03-14T04:38:40;11.40;99.90
22779;DHT22;11556;51.194;3.800;2023-03-14T04:41:06;11.20;99.90
22779;DHT22;11556;51.194;3.800;2023-03-14T04:43:32;11.20;99.90
22779;DHT22;11556;51.194;3.800;2023-03-14T04:45:58;11.20;99.90
22779;DHT22;11556;51.194;3.800;2023-03-14T04:48:25;11.30;99.90
22779;DHT22;11556;51.194;3.800;2023-03-14T04:50:51;11.30;99.90
22779;DHT22;11556;51.194;3.800;2023-03-14T04:53:17;11.40;99.90
22779;DHT22;11556;51.194;3.800;2023-03-14T04:55:47;11.10;99.90
22779;DHT22;11556;51.194;3.800;2023-03-14T04:58:13;11.10;99.90
22779;DHT22;11556;51.194;3.800;2023-03-14T05:00:39;11.10;99.90
22779;DHT22;11556;51.194;3.800;2023-03-14T05:03:04;11.20;99.90
22779;DHT22;11556;51.194;3.800;2023-03-14T05:05:30;11.10;99.90
22779;DHT22;11556;51.194;3.800;2023-03-14T05:07:55;11.10;99.90
22779;DHT22;11556;51.194;3.800;2023-03-14T05:10:21;11.00;99.90
22779;DHT22;11556;51.194;3.800;2023-03-14T05:12:47;11.00;99.90
22779;DHT22;11556;51.194;3.800;2023-03-14T05:15:12;11.00;99.90
22779;DHT22;11556;51.194;3.800;2023-03-14T05:17:38;10.90;99.90
22779;DHT22;11556;51.194;3.800;2023-03-14T05:20:04;10.80;99.90
22779;DHT22;11556;51.194;3.800;2023-03-14T05:22:34;10.70;99.90
22779;DHT22;11556;51.194;3.800;2023-03-14T05:24:59;10.70;99.90
22779;DHT22;11556;51.194;3.800;2023-03-14T05:27:25;10.60;99.90
22779;DHT22;11556;51.194;3.800;2023-03-14T05:29:51;10.70;99.90
22779;DHT22;11556;51.194;3.800;2023-03-14T05:32:16;10.70;99.90
22779;DHT22;11556;51.194;3.800;2023-03-14T05:34:42;10.60;99.90
22779;DHT22;11556;51.194;3.800;2023-03-14T05:37:07;10.60;99.90
22779;DHT22;11556;51.194;3.800;2023-03-14T05:39:33;10.70;99.90
22779;DHT22;11556;51.194;3.800;2023-03-14T05:41:58;10.90;99.90
22779;DHT22;11556;51.194;3.800;2023-03-14T05:44:24;10.90;99.90
22779;DHT22;11556;51.194;3.800;2023-03-14T05:46:50;11.20;99.90
22779;DHT22;11556;51.194;3.800;2023-03-14T05:49:15;11.10;99.90
22779;DHT22;11556;51.194;3.800;2023-03-14T05:51:41;10.70;99.90
22779;DHT22;11556;51.194;3.800;2023-03-14T05:54:07;10.10;99.90
22779;DHT22;11556;51.194;3.800;2023-03-14T05:56:32;9.70;99.90
22779;DHT22;11556;51.194;3.800;2023-03-14T05:58:58;9.30;99.90
22779;DHT22;11556;51.194;3.800;2023-03-14T06:01:24;9.20;99.90
22779;DHT22;11556;51.194;3.800;2023-03-14T06:03:49;9.10;99.90
22779;DHT22;11556;51.194;3.800;2023-03-14T06:06:15;9.00;99.90
22779;DHT22;11556;51.194;3.800;2023-03-14T06:08:42;8.90;99.90
22779;DHT22;11556;51.194;3.800;2023-03-14T06:11:07;8.80;99.90
22779;DHT22;11556;51.194;3.800;2023-03-14T06:13:33;8.80;99.90
22779;DHT22;11556;51.194;3.800;2023-03-14T06:15:59;8.80;99.90
22779;DHT22;11556;51.194;3.800;2023-03-14T06:18:25;8.80;99.90
22779;DHT22;11556;51.194;3.800;2023-03-14T06:20:54;8.80;99.90
22779;DHT22;11556;51.194;3.800;2023-03-14T06:23:21;8.80;99.90
22779;DHT22;11556;51.194;3.800;2023-03-14T06:25:47;8.80;99.90
22779;DHT22;11556;51.194;3.800;2023-03-14T06:28:12;8.90;99.90
22779;DHT22;11556;51.194;3.800;2023-03-14T06:30:38;8.90;99.90
22779;DHT22;11556;51.194;3.800;2023-03-14T06:33:04;9.00;99.90
22779;DHT22;11556;51.194;3.800;2023-03-14T06:35:29;9.00;99.90
22779;DHT22;11556;51.194;3.800;2023-03-14T06:37:55;9.00;99.90
22779;DHT22;11556;51.194;3.800;2023-03-14T06:40:21;9.10;99.90
22779;DHT22;11556;51.194;3.800;2023-03-14T06:42:47;9.10;99.90
22779;DHT22;11556;51.194;3.800;2023-03-14T06:45:13;9.10;99.90
22779;DHT22;11556;51.194;3.800;2023-03-14T06:47:39;9.20;99.90
22779;DHT22;11556;51.194;3.800;2023-03-14T06:50:09;9.30;99.90
22779;DHT22;11556;51.194;3.800;2023-03-14T06:52:35;9.20;99.90
22779;DHT22;11556;51.194;3.800;2023-03-14T06:55:01;9.20;99.90
22779;DHT22;11556;51.194;3.800;2023-03-14T06:57:27;9.20;99.90
22779;DHT22;11556;51.194;3.800;2023-03-14T06:59:52;9.20;99.90
22779;DHT22;11556;51.194;3.800;2023-03-14T07:02:18;9.30;99.90
22779;DHT22;11556;51.194;3.800;2023-03-14T07:04:43;9.30;99.90
22779;DHT22;11556;51.194;3.800;2023-03-14T07:07:09;9.30;99.90
22779;DHT22;11556;51.194;3.800;2023-03-14T07:09:35;9.30;99.90
22779;DHT22;11556;51.194;3.800;2023-03-14T07:12:01;9.30;99.90
22779;DHT22;11556;51.194;3.800;2023-03-14T07:14:27;9.30;99.90
22779;DHT22;11556;51.194;3.800;2023-03-14T07:16:52;9.30;99.90
22779;DHT22;11556;51.194;3.800;2023-03-14T07:19:19;9.40;99.90
22779;DHT22;11556;51.194;3.800;2023-03-14T07:21:44;9.40;99.90
22779;DHT22;11556;51.194;3.800;2023-03-14T07:24:10;9.40;99.90
22779;DHT22;11556;51.194;3.800;2023-03-14T07:26:36;9.30;99.90
22779;DHT22;11556;51.194;3.800;2023-03-14T07:29:01;9.20;99.90
22779;DHT22;11556;51.194;3.800;2023-03-14T07:31:29;9.20;99.90
22779;DHT22;11556;51.194;3.800;2023-03-14T07:33:54;9.20;99.90
22779;DHT22;11556;51.194;3.800;2023-03-14T07:36:20;9.20;99.90
22779;DHT22;11556;51.194;3.800;2023-03-14T07:38:46;9.20;99.90
22779;DHT22;11556;51.194;3.800;2023-03-14T07:41:12;9.20;99.90
22779;DHT22;11556;51.194;3.800;2023-03-14T07:43:38;9.10;99.90
22779;DHT22;11556;51.194;3.800;2023-03-14T07:46:04;9.00;99.90
22779;DHT22;11556;51.194;3.800;2023-03-14T07:48:29;8.90;99.90
22779;DHT22;11556;51.194;3.800;2023-03-14T07:50:55;8.80;99.90
22779;DHT22;11556;51.194;3.800;2023-03-14T07:53:21;8.80;99.90
22779;DHT22;11556;51.194;3.800;2023-03-14T07:55:47;8.80;99.90
22779;DHT22;11556;51.194;3.800;2023-03-14T07:58:14;8.80;99.90
22779;DHT22;11556;51.194;3.800;2023-03-14T08:00:39;8.90;99.90
22779;DHT22;11556;51.194;3.800;2023-03-14T08:03:05;8.90;99.90
22779;DHT22;11556;51.194;3.800;2023-03-14T08:05:37;8.90;99.90
22779;DHT22;11556;51.194;3.800;2023-03-14T08:08:04;8.90;99.90
22779;DHT22;11556;51.194;3.800;2023-03-14T08:10:30;9.10;99.90
22779;DHT22;11556;51.194;3.800;2023-03-14T08:12:57;9.00;99.90
22779;DHT22;11556;51.194;3.800;2023-03-14T08:15:24;9.10;99.90
22779;DHT22;11556;51.194;3.800;2023-03-14T08:17:50;9.10;99.90
22779;DHT22;11556;51.194;3.800;2023-03-14T08:20:20;9.20;99.90
22779;DHT22;11556;51.194;3.800;2023-03-14T08:22:46;9.30;99.90
22779;DHT22;11556;51.194;3.800;2023-03-14T08:25:12;9.40;99.90
22779;DHT22;11556;51.194;3.800;2023-03-14T08:27:37;9.40;99.90
22779;DHT22;11556;51.194;3.800;2023-03-14T08:30:05;9.40;99.90
22779;DHT22;11556;51.194;3.800;2023-03-14T08:32:30;9.40;99.90
22779;DHT22;11556;51.194;3.800;2023-03-14T08:34:56;9.30;99.90
22779;DHT22;11556;51.194;3.800;2023-03-14T08:37:22;9.30;99.90
22779;DHT22;11556;51.194;3.800;2023-03-14T08:39:47;9.40;99.90
22779;DHT22;11556;51.194;3.800;2023-03-14T08:42:13;9.40;99.90
22779;DHT22;11556;51.194;3.800;2023-03-14T08:44:38;9.50;99.90
22779;DHT22;11556;51.194;3.800;2023-03-14T08:47:04;9.40;99.90
22779;DHT22;11556;51.194;3.800;2023-03-14T08:49:30;9.40;99.90
22779;DHT22;11556;51.194;3.800;2023-03-14T08:51:55;9.50;99.90
22779;DHT22;11556;51.194;3.800;2023-03-14T08:54:21;9.70;99.90
22779;DHT22;11556;51.194;3.800;2023-03-14T08:56:46;10.00;99.90
22779;DHT22;11556;51.194;3.800;2023-03-14T08:59:12;10.20;99.90
22779;DHT22;11556;51.194;3.800;2023-03-14T09:01:38;10.50;99.90
22779;DHT22;11556;51.194;3.800;2023-03-14T09:04:03;10.40;99.90
22779;DHT22;11556;51.194;3.800;2023-03-14T09:06:29;10.40;99.90
22779;DHT22;11556;51.194;3.800;2023-03-14T09:08:55;10.40;99.90
22779;DHT22;11556;51.194;3.800;2023-03-14T09:11:20;10.40;99.90
22779;DHT22;11556;51.194;3.800;2023-03-14T09:13:46;10.30;99.90
22779;DHT22;11556;51.194;3.800;2023-03-14T09:16:11;10.10;99.90
22779;DHT22;11556;51.194;3.800;2023-03-14T09:18:37;9.80;99.90
22779;DHT22;11556;51.194;3.800;2023-03-14T09:21:03;9.60;99.90
22779;DHT22;11556;51.194;3.800;2023-03-14T09:23:29;9.40;99.90
22779;DHT22;11556;51.194;3.800;2023-03-14T09:25:55;9.30;99.90
22779;DHT22;11556;51.194;3.800;2023-03-14T09:28:21;9.10;99.90
22779;DHT22;11556;51.194;3.800;2023-03-14T09:30:47;9.00;99.90
22779;DHT22;11556;51.194;3.800;2023-03-14T09:33:13;8.80;99.90
22779;DHT22;11556;51.194;3.800;2023-03-14T09:35:38;8.90;99.90
22779;DHT22;11556;51.194;3.800;2023-03-14T09:38:04;8.90;99.90
22779;DHT22;11556;51.194;3.800;2023-03-14T09:40:34;8.90;99.90
22779;DHT22;11556;51.194;3.800;2023-03-14T09:43:00;8.90;99.90
22779;DHT22;11556;51.194;3.800;2023-03-14T09:45:29;9.00;99.90
22779;DHT22;11556;51.194;3.800;2023-03-14T09:47:57;8.90;99.90
22779;DHT22;11556;51.194;3.800;2023-03-14T09:50:25;8.80;99.90
22779;DHT22;11556;51.194;3.800;2023-03-14T09:52:56;8.70;99.90
22779;DHT22;11556;51.194;3.800;2023-03-14T09:55:24;8.60;99.90
22779;DHT22;11556;51.194;3.800;2023-03-14T09:57:56;8.50;99.90
22779;DHT22;11556;51.194;3.800;2023-03-14T10:00:26;8.50;99.90
22779;DHT22;11556;51.194;3.800;2023-03-14T10:03:39;8.50;99.90
22779;DHT22;11556;51.194;3.800;2023-03-14T10:05:41;8.60;99.90
22779;DHT22;11556;51.194;3.800;2023-03-14T10:08:10;8.60;99.90
22779;DHT22;11556;51.194;3.800;2023-03-14T10:10:36;8.70;99.90
22779;DHT22;11556;51.194;3.800;2023-03-14T10:13:40;8.90;99.90
22779;DHT22;11556;51.194;3.800;2023-03-14T10:16:02;9.00;99.90
22779;DHT22;11556;51.194;3.800;2023-03-14T10:18:29;9.10;99.90
22779;DHT22;11556;51.194;3.800;2023-03-14T10:21:29;9.10;99.90
22779;DHT22;11556;51.194;3.800;2023-03-14T10:24:08;9.20;99.90
22779;DHT22;11556;51.194;3.800;2023-03-14T10:26:34;9.20;99.90
22779;DHT22;11556;51.194;3.800;2023-03-14T10:29:11;9.10;99.90
22779;DHT22;11556;51.194;3.800;2023-03-14T10:32:10;9.10;99.90
22779;DHT22;11556;51.194;3.800;2023-03-14T10:34:43;9.30;99.90
22779;DHT22;11556;51.194;3.800;2023-03-14T10:37:20;9.60;99.90
22779;DHT22;11556;51.194;3.800;2023-03-14T10:39:47;9.80;99.90
22779;DHT22;11556;51.194;3.800;2023-03-14T10:42:27;10.20;99.90
22779;DHT22;11556;51.194;3.800;2023-03-14T10:44:58;10.60;99.90
22779;DHT22;11556;51.194;3.800;2023-03-14T10:47:27;11.10;99.90
22779;DHT22;11556;51.194;3.800;2023-03-14T10:49:54;11.70;99.90
22779;DHT22;11556;51.194;3.800;2023-03-14T10:52:26;12.30;99.90
22779;DHT22;11556;51.194;3.800;2023-03-14T10:54:59;12.90;99.90
22779;DHT22;11556;51.194;3.800;2023-03-14T10:57:25;13.60;99.90
22779;DHT22;11556;51.194;3.800;2023-03-14T10:59:52;14.40;99.90
22779;DHT22;11556;51.194;3.800;2023-03-14T11:10:08;12.40;99.90
22779;DHT22;11556;51.194;3.800;2023-03-14T11:12:49;11.60;99.90
22779;DHT22;11556;51.194;3.800;2023-03-14T11:23:18;9.70;99.90
22779;DHT22;11556;51.194;3.800;2023-03-14T11:28:38;8.90;99.90
22779;DHT22;11556;51.194;3.800;2023-03-14T11:31:19;8.90;99.90
22779;DHT22;11556;51.194;3.800;2023-03-14T11:36:22;8.90;99.90
22779;DHT22;11556;51.194;3.800;2023-03-14T11:38:50;8.90;99.90
22779;DHT22;11556;51.194;3.800;2023-03-14T11:41:27;9.10;99.90
22779;DHT22;11556;51.194;3.800;2023-03-14T11:43:58;9.30;99.90
22779;DHT22;11556;51.194;3.800;2023-03-14T11:46:25;9.60;99.90
22779;DHT22;11556;51.194;3.800;2023-03-14T11:49:03;9.60;99.90
22779;DHT22;11556;51.194;3.800;2023-03-14T11:51:35;9.40;99.90
22779;DHT22;11556;51.194;3.800;2023-03-14T11:54:04;9.30;99.90
22779;DHT22;11556;51.194;3.800;2023-03-14T11:56:39;9.10;99.90
22779;DHT22;11556;51.194;3.800;2023-03-14T11:59:19;9.00;99.90
22779;DHT22;11556;51.194;3.800;2023-03-14T12:01:55;8.90;99.90
22779;DHT22;11556;51.194;3.800;2023-03-14T12:07:05;9.40;99.90
22779;DHT22;11556;51.194;3.800;2023-03-14T12:09:34;9.80;99.90
22779;DHT22;11556;51.194;3.800;2023-03-14T12:12:02;10.00;99.90
22779;DHT22;11556;51.194;3.800;2023-03-14T12:14:33;9.90;99.90
22779;DHT22;11556;51.194;3.800;2023-03-14T12:17:20;9.70;99.90
22779;DHT22;11556;51.194;3.800;2023-03-14T12:19:48;9.50;99.90
22779;DHT22;11556;51.194;3.800;2023-03-14T12:22:30;9.10;99.90
22779;DHT22;11556;51.194;3.800;2023-03-14T12:25:06;8.90;99.90
22779;DHT22;11556;51.194;3.800;2023-03-14T12:35:44;9.30;99.90
22779;DHT22;11556;51.194;3.800;2023-03-14T12:38:14;9.40;99.90
22779;DHT22;11556;51.194;3.800;2023-03-14T12:43:41;9.40;99.90
22779;DHT22;11556;51.194;3.800;2023-03-14T12:46:21;9.50;99.90
22779;DHT22;11556;51.194;3.800;2023-03-14T12:48:50;9.40;99.90
22779;DHT22;11556;51.194;3.800;2023-03-14T12:51:20;9.40;99.90
22779;DHT22;11556;51.194;3.800;2023-03-14T13:00:34;9.60;99.90
22779;DHT22;11556;51.194;3.800;2023-03-14T13:02:41;9.70;99.90
22779;DHT22;11556;51.194;3.800;2023-03-14T13:05:16;9.80;99.90
22779;DHT22;11556;51.194;3.800;2023-03-14T13:10:16;9.80;99.90
22779;DHT22;11556;51.194;3.800;2023-03-14T13:13:13;9.80;99.90
22779;DHT22;11556;51.194;3.800;2023-03-14T13:15:42;9.70;99.90
22779;DHT22;11556;51.194;3.800;2023-03-14T13:18:15;9.60;99.90
22779;DHT22;11556;51.194;3.800;2023-03-14T13:20:45;9.60;99.90
22779;DHT22;11556;51.194;3.800;2023-03-14T13:23:23;9.70;99.90
22779;DHT22;11556;51.194;3.800;2023-03-14T13:25:49;9.80;99.90
22779;DHT22;11556;51.194;3.800;2023-03-14T13:28:16;10.00;99.90
22779;DHT22;11556;51.194;3.800;2023-03-14T13:30:44;10.10;99.90
22779;DHT22;11556;51.194;3.800;2023-03-14T13:33:21;10.30;99.90
22779;DHT22;11556;51.194;3.800;2023-03-14T13:36:08;10.30;99.90
22779;DHT22;11556;51.194;3.800;2023-03-14T13:38:36;10.10;99.90
22779;DHT22;11556;51.194;3.800;2023-03-14T13:41:06;9.90;99.90
22779;DHT22;11556;51.194;3.800;2023-03-14T13:43:43;9.60;99.90
22779;DHT22;11556;51.194;3.800;2023-03-14T13:48:52;9.20;99.90
22779;DHT22;11556;51.194;3.800;2023-03-14T13:51:19;8.80;99.90
22779;DHT22;11556;51.194;3.800;2023-03-14T13:53:51;8.60;99.90
22779;DHT22;11556;51.194;3.800;2023-03-14T13:56:21;8.50;99.90
22779;DHT22;11556;51.194;3.800;2023-03-14T13:58:48;8.60;99.90
22779;DHT22;11556;51.194;3.800;2023-03-14T14:03:49;8.90;99.90
22779;DHT22;11556;51.194;3.800;2023-03-14T14:06:38;9.10;99.90
22779;DHT22;11556;51.194;3.800;2023-03-14T14:09:15;9.50;99.90
22779;DHT22;11556;51.194;3.800;2023-03-14T14:17:22;10.10;99.90
22779;DHT22;11556;51.194;3.800;2023-03-14T14:19:49;10.00;99.90
22779;DHT22;11556;51.194;3.800;2023-03-14T14:22:15;10.10;99.90
22779;DHT22;11556;51.194;3.800;2023-03-14T14:24:41;10.10;99.90
22779;DHT22;11556;51.194;3.800;2023-03-14T14:27:17;10.10;99.90
22779;DHT22;11556;51.194;3.800;2023-03-14T14:29:44;10.20;99.70
22779;DHT22;11556;51.194;3.800;2023-03-14T14:32:13;10.30;99.90
22779;DHT22;11556;51.194;3.800;2023-03-14T14:34:55;10.40;99.90
22779;DHT22;11556;51.194;3.800;2023-03-14T14:37:30;10.30;99.90
22779;DHT22;11556;51.194;3.800;2023-03-14T14:40:08;10.10;99.90
22779;DHT22;11556;51.194;3.800;2023-03-14T14:42:39;10.00;99.90
22779;DHT22;11556;51.194;3.800;2023-03-14T14:45:07;9.80;99.90
22779;DHT22;11556;51.194;3.800;2023-03-14T14:47:36;9.60;99.90
22779;DHT22;11556;51.194;3.800;2023-03-14T14:50:04;9.60;99.90
22779;DHT22;11556;51.194;3.800;2023-03-14T14:52:34;9.40;99.90
22779;DHT22;11556;51.194;3.800;2023-03-14T14:55:02;9.40;99.90
22779;DHT22;11556;51.194;3.800;2023-03-14T14:57:31;9.40;99.90
22779;DHT22;11556;51.194;3.800;2023-03-14T15:00:08;9.30;99.90
22779;DHT22;11556;51.194;3.800;2023-03-14T15:02:38;9.30;99.90
22779;DHT22;11556;51.194;3.800;2023-03-14T15:05:35;9.30;99.90
22779;DHT22;11556;51.194;3.800;2023-03-14T15:08:02;9.20;99.90
22779;DHT22;11556;51.194;3.800;2023-03-14T15:10:27;9.30;99.90
22779;DHT22;11556;51.194;3.800;2023-03-14T15:12:53;9.30;99.90
22779;DHT22;11556;51.194;3.800;2023-03-14T15:15:19;9.30;99.90
22779;DHT22;11556;51.194;3.800;2023-03-14T15:17:45;9.30;99.90
22779;DHT22;11556;51.194;3.800;2023-03-14T15:20:14;9.30;99.90
22779;DHT22;11556;51.194;3.800;2023-03-14T15:22:40;9.30;99.90
22779;DHT22;11556;51.194;3.800;2023-03-14T15:25:07;9.20;99.90
22779;DHT22;11556;51.194;3.800;2023-03-14T15:27:33;9.20;99.90
22779;DHT22;11556;51.194;3.800;2023-03-14T15:29:59;9.20;99.90
22779;DHT22;11556;51.194;3.800;2023-03-14T15:32:25;9.30;99.90
22779;DHT22;11556;51.194;3.800;2023-03-14T15:34:55;9.40;99.90
22779;DHT22;11556;51.194;3.800;2023-03-14T15:37:21;9.50;99.90
22779;DHT22;11556;51.194;3.800;2023-03-14T15:39:47;9.60;99.90
22779;DHT22;11556;51.194;3.800;2023-03-14T15:42:13;9.70;99.90
22779;DHT22;11556;51.194;3.800;2023-03-14T15:44:39;9.70;99.90
22779;DHT22;11556;51.194;3.800;2023-03-14T15:47:05;9.80;99.90
22779;DHT22;11556;51.194;3.800;2023-03-14T15:49:31;10.00;99.90
22779;DHT22;11556;51.194;3.800;2023-03-14T15:51:58;10.10;99.90
22779;DHT22;11556;51.194;3.800;2023-03-14T15:54:24;10.30;99.90
22779;DHT22;11556;51.194;3.800;2023-03-14T15:56:56;10.70;99.90
22779;DHT22;11556;51.194;3.800;2023-03-14T15:59:23;11.30;99.90
22779;DHT22;11556;51.194;3.800;2023-03-14T16:01:48;11.90;99.90
22779;DHT22;11556;51.194;3.800;2023-03-14T16:04:14;12.20;99.90
22779;DHT22;11556;51.194;3.800;2023-03-14T16:06:40;12.00;99.90
22779;DHT22;11556;51.194;3.800;2023-03-14T16:09:06;12.00;99.90
22779;DHT22;11556;51.194;3.800;2023-03-14T16:11:32;12.00;99.90
22779;DHT22;11556;51.194;3.800;2023-03-14T16:13:58;11.80;99.90
22779;DHT22;11556;51.194;3.800;2023-03-14T16:16:23;11.40;99.90
22779;DHT22;11556;51.194;3.800;2023-03-14T16:18:49;11.10;99.90
22779;DHT22;11556;51.194;3.800;2023-03-14T16:21:17;10.80;99.90
22779;DHT22;11556;51.194;3.800;2023-03-14T16:23:43;10.50;99.90
22779;DHT22;11556;51.194;3.800;2023-03-14T16:26:11;10.30;99.90
22779;DHT22;11556;51.194;3.800;2023-03-14T16:28:38;10.10;99.90
22779;DHT22;11556;51.194;3.800;2023-03-14T16:31:06;9.90;99.90
22779;DHT22;11556;51.194;3.800;2023-03-14T16:33:33;9.90;99.90
22779;DHT22;11556;51.194;3.800;2023-03-14T16:36:00;10.00;99.90
22779;DHT22;11556;51.194;3.800;2023-03-14T16:38:30;10.00;99.90
22779;DHT22;11556;51.194;3.800;2023-03-14T16:41:13;10.00;99.90
22779;DHT22;11556;51.194;3.800;2023-03-14T16:43:39;9.90;99.90
22779;DHT22;11556;51.194;3.800;2023-03-14T16:46:07;10.00;99.90